Airfield :
LOGIN :

Register | Disclaimer

   EN    FR    IT 

 










Legend :    VFR   Marginal VFR   IFR   Intensive IFR   Very Intensive IFR
Visi :
Ceiling :
>= 8 km
>= 3000ft
5 to 8 km
1000 to 3000 ft
1500m to 5 km
500 to 1000 ft
800 to 1500m
200 to 500 ft
< 800m
< 200 ft
Symbols :   Thunderstorms  Fog  Heavy snow  Heavy precipitations  Wind > 20 kt
SIGMETs :     Misc.  Thunderstorms  Icing  Turbulence  Mountain Waves  Volcanic Ashes







- Airport Elevation : 27 ft
- IATA code : PMI


LEPA - Palma de Mallorca

CURRENT METAR :
  • 271230Z 26007KT 200V290 CAVOK 35/19 Q1018 NOSIG

EXPIRED METARs :
  • 271200Z 10006KT 050V190 CAVOK 36/18 Q1018 NOSIG
  • 271130Z 09007KT 050V190 CAVOK 37/14 Q1019 NOSIG
  • 271100Z 09008KT 050V140 CAVOK 37/14 Q1019 NOSIG
  • 271030Z 08008KT 050V140 CAVOK 36/15 Q1019 NOSIG
  • 271000Z 06008KT 020V090 CAVOK 35/16 Q1019 NOSIG

TAF TAF LEPA
Valid from the 27 at 12:00 until the 28 at 12:00 UTC


271100Z 2712/2812 07008KT CAVOK TX37/2712Z TN21/2806Z
BECMG 2712/2715 23010KT
BECMG 2718/2720 VRB03KT
BECMG 2809/2811 22010KT
No reported NOTAMs for that airfield.



MET'MAP, your aeronautical weather chart ! - Copyright ORBIFLY December 2007 - Disclaimer

ORBIFLY MET'MAP TEAM :

Programming & Development : Alexandra Zaïnal
Concept & Development : Baudouin d'Aumeries
Co-Development & Prog : Marc-Olivier Méhu
Technical & hardware support : Manuel Goepfert

Contact : metmap@orbifly.com




SOURCES & CREDITS :

   NOAA